sensor_id;sensor_type;location;lat;lon;timestamp;pressure;altitude;pressure_sealevel;temperature;humidity
68986;BME280;56035;37.534;-122.308;2022-10-31T00:01:24;101511.56;;;17.27;67.38
68986;BME280;56035;37.534;-122.308;2022-10-31T00:03:50;101504.81;;;17.18;67.85
68986;BME280;56035;37.534;-122.308;2022-10-31T00:06:17;101510.34;;;17.13;68.33
68986;BME280;56035;37.534;-122.308;2022-10-31T00:08:47;101513.88;;;17.03;67.92
68986;BME280;56035;37.534;-122.308;2022-10-31T00:11:13;101509.06;;;16.88;67.97
68986;BME280;56035;37.534;-122.308;2022-10-31T00:13:39;101502.88;;;16.81;68.07
68986;BME280;56035;37.534;-122.308;2022-10-31T00:16:19;101507.75;;;16.69;68.36
68986;BME280;56035;37.534;-122.308;2022-10-31T00:18:53;101510.91;;;16.50;68.30
68986;BME280;56035;37.534;-122.308;2022-10-31T00:21:20;101506.63;;;16.37;68.63
68986;BME280;56035;37.534;-122.308;2022-10-31T00:23:47;101501.75;;;16.23;68.94
68986;BME280;56035;37.534;-122.308;2022-10-31T00:26:14;101510.81;;;16.13;69.17
68986;BME280;56035;37.534;-122.308;2022-10-31T00:28:40;101517.03;;;15.98;69.67
68986;BME280;56035;37.534;-122.308;2022-10-31T00:31:09;101516.59;;;15.84;69.23
68986;BME280;56035;37.534;-122.308;2022-10-31T00:33:37;101500.59;;;15.70;69.48
68986;BME280;56035;37.534;-122.308;2022-10-31T00:36:05;101499.84;;;15.57;69.80
68986;BME280;56035;37.534;-122.308;2022-10-31T00:38:31;101506.84;;;15.43;70.29
68986;BME280;56035;37.534;-122.308;2022-10-31T00:40:58;101499.72;;;15.30;69.51
68986;BME280;56035;37.534;-122.308;2022-10-31T00:43:24;101503.22;;;15.20;69.83
68986;BME280;56035;37.534;-122.308;2022-10-31T00:46:11;101500.53;;;15.09;70.33
68986;BME280;56035;37.534;-122.308;2022-10-31T00:48:38;101501.81;;;15.01;69.95
68986;BME280;56035;37.534;-122.308;2022-10-31T00:51:05;101502.72;;;14.90;70.25
68986;BME280;56035;37.534;-122.308;2022-10-31T00:53:31;101499.19;;;14.78;70.46
68986;BME280;56035;37.534;-122.308;2022-10-31T00:55:57;101507.84;;;14.64;71.01
68986;BME280;56035;37.534;-122.308;2022-10-31T00:58:23;101500.19;;;14.55;71.42
68986;BME280;56035;37.534;-122.308;2022-10-31T01:00:49;101501.44;;;14.47;71.31
68986;BME280;56035;37.534;-122.308;2022-10-31T01:03:26;101506.69;;;14.32;71.66
68986;BME280;56035;37.534;-122.308;2022-10-31T01:06:07;101498.69;;;14.18;71.76
68986;BME280;56035;37.534;-122.308;2022-10-31T01:08:35;101504.28;;;14.07;72.15
68986;BME280;56035;37.534;-122.308;2022-10-31T01:11:05;101502.06;;;13.92;72.64
68986;BME280;56035;37.534;-122.308;2022-10-31T01:13:33;101509.91;;;13.83;72.15
68986;BME280;56035;37.534;-122.308;2022-10-31T01:16:00;101502.97;;;13.69;72.92
68986;BME280;56035;37.534;-122.308;2022-10-31T01:18:27;101503.09;;;13.62;72.77
68986;BME280;56035;37.534;-122.308;2022-10-31T01:20:58;101504.81;;;13.51;73.08
68986;BME280;56035;37.534;-122.308;2022-10-31T01:23:25;101508.22;;;13.42;72.50
68986;BME280;56035;37.534;-122.308;2022-10-31T01:26:02;101510.75;;;13.31;72.45
68986;BME280;56035;37.534;-122.308;2022-10-31T01:28:29;101518.53;;;13.23;73.31
68986;BME280;56035;37.534;-122.308;2022-10-31T01:30:55;101513.00;;;13.11;73.09
68986;BME280;56035;37.534;-122.308;2022-10-31T01:33:25;101521.66;;;13.03;73.54
68986;BME280;56035;37.534;-122.308;2022-10-31T01:35:51;101515.75;;;12.87;74.12
68986;BME280;56035;37.534;-122.308;2022-10-31T01:38:17;101519.94;;;12.78;73.90
68986;BME280;56035;37.534;-122.308;2022-10-31T01:40:43;101527.50;;;12.71;74.12
68986;BME280;56035;37.534;-122.308;2022-10-31T01:43:13;101528.34;;;12.60;74.74
68986;BME280;56035;37.534;-122.308;2022-10-31T01:45:43;101523.63;;;12.49;75.26
68986;BME280;56035;37.534;-122.308;2022-10-31T01:48:14;101529.25;;;12.42;76.13
68986;BME280;56035;37.534;-122.308;2022-10-31T01:50:42;101529.81;;;12.32;75.39
68986;BME280;56035;37.534;-122.308;2022-10-31T01:53:11;101522.00;;;12.29;75.25
68986;BME280;56035;37.534;-122.308;2022-10-31T01:55:42;101521.97;;;12.17;75.68
68986;BME280;56035;37.534;-122.308;2022-10-31T01:58:20;101521.22;;;12.10;75.53
68986;BME280;56035;37.534;-122.308;2022-10-31T02:00:48;101521.16;;;11.99;76.23
68986;BME280;56035;37.534;-122.308;2022-10-31T02:03:16;101527.03;;;11.90;76.60
68986;BME280;56035;37.534;-122.308;2022-10-31T02:05:44;101525.22;;;11.78;77.27
68986;BME280;56035;37.534;-122.308;2022-10-31T02:08:16;101529.13;;;11.70;77.25
68986;BME280;56035;37.534;-122.308;2022-10-31T02:10:44;101531.38;;;11.61;78.00
68986;BME280;56035;37.534;-122.308;2022-10-31T02:13:11;101527.69;;;11.49;78.38
68986;BME280;56035;37.534;-122.308;2022-10-31T02:15:39;101543.47;;;11.42;79.33
68986;BME280;56035;37.534;-122.308;2022-10-31T02:18:07;101536.56;;;11.33;78.66
68986;BME280;56035;37.534;-122.308;2022-10-31T02:29:15;101539.03;;;10.97;80.86
68986;BME280;56035;37.534;-122.308;2022-10-31T02:34:30;101534.91;;;10.82;81.22
68986;BME280;56035;37.534;-122.308;2022-10-31T02:37:17;101548.09;;;10.80;82.09
68986;BME280;56035;37.534;-122.308;2022-10-31T02:40:04;101560.63;;;10.75;82.59
68986;BME280;56035;37.534;-122.308;2022-10-31T02:42:59;101559.38;;;10.71;82.91
68986;BME280;56035;37.534;-122.308;2022-10-31T02:48:14;101568.09;;;10.68;83.99
68986;BME280;56035;37.534;-122.308;2022-10-31T02:50:44;101564.34;;;10.63;83.67
68986;BME280;56035;37.534;-122.308;2022-10-31T02:53:15;101564.94;;;10.65;84.11
68986;BME280;56035;37.534;-122.308;2022-10-31T02:55:56;101563.72;;;10.61;84.11
68986;BME280;56035;37.534;-122.308;2022-10-31T02:58:27;101572.63;;;10.56;84.41
68986;BME280;56035;37.534;-122.308;2022-10-31T03:03:40;101578.66;;;10.46;85.76
68986;BME280;56035;37.534;-122.308;2022-10-31T03:06:17;101571.47;;;10.39;85.85
68986;BME280;56035;37.534;-122.308;2022-10-31T03:09:03;101565.41;;;10.30;86.38
68986;BME280;56035;37.534;-122.308;2022-10-31T03:14:35;101563.75;;;10.16;87.49
68986;BME280;56035;37.534;-122.308;2022-10-31T03:17:07;101560.81;;;10.11;87.99
68986;BME280;56035;37.534;-122.308;2022-10-31T03:19:41;101563.13;;;10.07;88.56
68986;BME280;56035;37.534;-122.308;2022-10-31T03:22:21;101567.41;;;10.03;88.72
68986;BME280;56035;37.534;-122.308;2022-10-31T03:24:50;101565.75;;;9.95;88.67
68986;BME280;56035;37.534;-122.308;2022-10-31T03:27:24;101572.53;;;9.93;89.78
68986;BME280;56035;37.534;-122.308;2022-10-31T03:29:52;101575.28;;;9.93;89.93
68986;BME280;56035;37.534;-122.308;2022-10-31T03:32:26;101569.97;;;9.98;90.78
68986;BME280;56035;37.534;-122.308;2022-10-31T03:34:55;101575.50;;;9.91;89.87
68986;BME280;56035;37.534;-122.308;2022-10-31T03:37:25;101574.47;;;9.85;89.96
68986;BME280;56035;37.534;-122.308;2022-10-31T03:39:55;101576.81;;;9.82;90.60
68986;BME280;56035;37.534;-122.308;2022-10-31T03:42:27;101581.28;;;9.76;91.02
68986;BME280;56035;37.534;-122.308;2022-10-31T03:45:02;101576.63;;;9.70;91.12
68986;BME280;56035;37.534;-122.308;2022-10-31T03:47:30;101572.00;;;9.64;91.45
68986;BME280;56035;37.534;-122.308;2022-10-31T03:49:57;101570.09;;;9.65;92.59
68986;BME280;56035;37.534;-122.308;2022-10-31T03:52:32;101574.13;;;9.62;93.17
68986;BME280;56035;37.534;-122.308;2022-10-31T03:55:05;101570.75;;;9.60;93.76
68986;BME280;56035;37.534;-122.308;2022-10-31T04:00:08;101570.75;;;9.53;94.36
68986;BME280;56035;37.534;-122.308;2022-10-31T04:02:39;101571.81;;;9.52;95.13
68986;BME280;56035;37.534;-122.308;2022-10-31T04:05:08;101565.06;;;9.48;95.03
68986;BME280;56035;37.534;-122.308;2022-10-31T04:07:39;101562.75;;;9.45;95.48
68986;BME280;56035;37.534;-122.308;2022-10-31T04:10:10;101557.44;;;9.44;96.34
68986;BME280;56035;37.534;-122.308;2022-10-31T04:12:37;101569.72;;;9.41;96.98
68986;BME280;56035;37.534;-122.308;2022-10-31T04:15:06;101570.16;;;9.38;97.02
68986;BME280;56035;37.534;-122.308;2022-10-31T04:17:38;101567.19;;;9.40;96.90
68986;BME280;56035;37.534;-122.308;2022-10-31T04:20:06;101565.31;;;9.33;97.61
68986;BME280;56035;37.534;-122.308;2022-10-31T04:22:32;101579.47;;;9.37;98.08
68986;BME280;56035;37.534;-122.308;2022-10-31T04:24:58;101576.06;;;9.42;98.55
68986;BME280;56035;37.534;-122.308;2022-10-31T04:27:25;101577.34;;;9.39;98.93
68986;BME280;56035;37.534;-122.308;2022-10-31T04:29:51;101582.03;;;9.38;99.08
68986;BME280;56035;37.534;-122.308;2022-10-31T04:32:17;101579.88;;;9.41;99.42
68986;BME280;56035;37.534;-122.308;2022-10-31T04:34:43;101584.97;;;9.37;99.68
68986;BME280;56035;37.534;-122.308;2022-10-31T04:37:09;101585.41;;;9.34;100.00
68986;BME280;56035;37.534;-122.308;2022-10-31T04:39:35;101582.03;;;9.32;99.60
68986;BME280;56035;37.534;-122.308;2022-10-31T04:42:01;101592.16;;;9.38;100.00
68986;BME280;56035;37.534;-122.308;2022-10-31T04:44:27;101584.78;;;9.32;100.00
68986;BME280;56035;37.534;-122.308;2022-10-31T04:46:53;101575.22;;;9.34;100.00
68986;BME280;56035;37.534;-122.308;2022-10-31T04:49:20;101573.13;;;9.36;100.00
68986;BME280;56035;37.534;-122.308;2022-10-31T04:51:46;101572.47;;;9.34;100.00
68986;BME280;56035;37.534;-122.308;2022-10-31T04:54:12;101580.31;;;9.31;100.00
68986;BME280;56035;37.534;-122.308;2022-10-31T04:56:38;101587.50;;;9.25;100.00
68986;BME280;56035;37.534;-122.308;2022-10-31T04:59:04;101585.22;;;9.22;100.00
68986;BME280;56035;37.534;-122.308;2022-10-31T05:01:30;101583.72;;;9.26;100.00
68986;BME280;56035;37.534;-122.308;2022-10-31T05:03:56;101586.06;;;9.23;100.00
68986;BME280;56035;37.534;-122.308;2022-10-31T05:06:22;101580.75;;;9.28;100.00
68986;BME280;56035;37.534;-122.308;2022-10-31T05:08:48;101586.25;;;9.28;100.00
68986;BME280;56035;37.534;-122.308;2022-10-31T05:11:15;101585.41;;;9.27;100.00
68986;BME280;56035;37.534;-122.308;2022-10-31T05:13:41;101582.22;;;9.30;100.00
68986;BME280;56035;37.534;-122.308;2022-10-31T05:16:07;101587.53;;;9.32;100.00
68986;BME280;56035;37.534;-122.308;2022-10-31T05:18:33;101593.47;;;9.29;100.00
68986;BME280;56035;37.534;-122.308;2022-10-31T05:20:59;101597.66;;;9.25;100.00
68986;BME280;56035;37.534;-122.308;2022-10-31T05:23:25;101593.00;;;9.25;100.00
68986;BME280;56035;37.534;-122.308;2022-10-31T05:25:51;101589.66;;;9.23;100.00
68986;BME280;56035;37.534;-122.308;2022-10-31T05:28:17;101596.22;;;9.22;100.00
68986;BME280;56035;37.534;-122.308;2022-10-31T05:30:43;101582.88;;;9.19;100.00
68986;BME280;56035;37.534;-122.308;2022-10-31T05:33:10;101584.78;;;9.19;100.00
68986;BME280;56035;37.534;-122.308;2022-10-31T05:35:36;101587.97;;;9.16;100.00
68986;BME280;56035;37.534;-122.308;2022-10-31T05:38:02;101573.16;;;9.17;100.00
68986;BME280;56035;37.534;-122.308;2022-10-31T05:40:28;101592.19;;;9.18;100.00
68986;BME280;56035;37.534;-122.308;2022-10-31T05:42:56;101595.16;;;9.17;100.00
68986;BME280;56035;37.534;-122.308;2022-10-31T05:45:24;101593.47;;;9.16;100.00
68986;BME280;56035;37.534;-122.308;2022-10-31T05:48:00;101596.22;;;9.16;100.00
68986;BME280;56035;37.534;-122.308;2022-10-31T05:50:28;101603.81;;;9.13;100.00
68986;BME280;56035;37.534;-122.308;2022-10-31T05:53:00;101607.81;;;9.18;100.00
68986;BME280;56035;37.534;-122.308;2022-10-31T05:55:27;101606.56;;;9.13;100.00
68986;BME280;56035;37.534;-122.308;2022-10-31T05:57:54;101612.91;;;9.14;100.00
68986;BME280;56035;37.534;-122.308;2022-10-31T06:00:21;101617.75;;;9.19;100.00
68986;BME280;56035;37.534;-122.308;2022-10-31T06:02:48;101615.47;;;9.22;100.00
68986;BME280;56035;37.534;-122.308;2022-10-31T06:05:14;101612.47;;;9.24;100.00
68986;BME280;56035;37.534;-122.308;2022-10-31T06:07:42;101613.31;;;9.24;100.00
68986;BME280;56035;37.534;-122.308;2022-10-31T06:10:09;101608.91;;;9.23;100.00
68986;BME280;56035;37.534;-122.308;2022-10-31T06:12:35;101610.16;;;9.21;100.00
68986;BME280;56035;37.534;-122.308;2022-10-31T06:15:07;101609.97;;;9.22;100.00
68986;BME280;56035;37.534;-122.308;2022-10-31T06:17:35;101611.84;;;9.22;100.00
68986;BME280;56035;37.534;-122.308;2022-10-31T06:20:01;101609.72;;;9.24;100.00
68986;BME280;56035;37.534;-122.308;2022-10-31T06:22:28;101612.06;;;9.20;100.00
68986;BME280;56035;37.534;-122.308;2022-10-31T06:24:54;101606.75;;;9.25;100.00
68986;BME280;56035;37.534;-122.308;2022-10-31T06:27:20;101602.13;;;9.26;100.00
68986;BME280;56035;37.534;-122.308;2022-10-31T06:29:46;101596.81;;;9.24;100.00
68986;BME280;56035;37.534;-122.308;2022-10-31T06:32:13;101601.91;;;9.21;100.00
68986;BME280;56035;37.534;-122.308;2022-10-31T06:34:40;101597.06;;;9.16;100.00
68986;BME280;56035;37.534;-122.308;2022-10-31T06:37:07;101590.06;;;9.13;100.00
68986;BME280;56035;37.534;-122.308;2022-10-31T06:39:34;101589.84;;;9.15;100.00
68986;BME280;56035;37.534;-122.308;2022-10-31T06:42:00;101582.03;;;9.12;100.00
68986;BME280;56035;37.534;-122.308;2022-10-31T06:44:26;101587.75;;;9.10;100.00
68986;BME280;56035;37.534;-122.308;2022-10-31T06:46:52;101582.69;;;9.07;100.00
68986;BME280;56035;37.534;-122.308;2022-10-31T06:49:18;101579.50;;;9.10;100.00
68986;BME280;56035;37.534;-122.308;2022-10-31T06:51:47;101573.78;;;9.05;100.00
68986;BME280;56035;37.534;-122.308;2022-10-31T06:54:14;101573.16;;;9.03;100.00
68986;BME280;56035;37.534;-122.308;2022-10-31T06:56:40;101572.31;;;9.03;100.00
68986;BME280;56035;37.534;-122.308;2022-10-31T06:59:07;101575.28;;;9.01;100.00
68986;BME280;56035;37.534;-122.308;2022-10-31T07:01:33;101566.84;;;8.96;100.00
68986;BME280;56035;37.534;-122.308;2022-10-31T07:03:59;101560.47;;;8.89;100.00
68986;BME280;56035;37.534;-122.308;2022-10-31T07:06:25;101564.94;;;8.83;100.00
68986;BME280;56035;37.534;-122.308;2022-10-31T07:08:51;101563.63;;;8.79;100.00
68986;BME280;56035;37.534;-122.308;2022-10-31T07:11:18;101559.44;;;8.77;100.00
68986;BME280;56035;37.534;-122.308;2022-10-31T07:13:44;101567.69;;;8.77;100.00
68986;BME280;56035;37.534;-122.308;2022-10-31T07:16:10;101564.28;;;8.75;100.00
68986;BME280;56035;37.534;-122.308;2022-10-31T07:18:38;101573.16;;;8.70;100.00
68986;BME280;56035;37.534;-122.308;2022-10-31T07:21:04;101569.78;;;8.68;100.00
68986;BME280;56035;37.534;-122.308;2022-10-31T07:23:31;101571.03;;;8.65;100.00
68986;BME280;56035;37.534;-122.308;2022-10-31T07:25:58;101566.59;;;8.64;100.00
68986;BME280;56035;37.534;-122.308;2022-10-31T07:28:26;101565.34;;;8.60;100.00
68986;BME280;56035;37.534;-122.308;2022-10-31T07:30:53;101566.78;;;8.56;100.00
68986;BME280;56035;37.534;-122.308;2022-10-31T07:33:20;101565.09;;;8.55;100.00
68986;BME280;56035;37.534;-122.308;2022-10-31T07:35:46;101573.16;;;8.57;100.00
68986;BME280;56035;37.534;-122.308;2022-10-31T07:38:14;101570.84;;;8.60;100.00
68986;BME280;56035;37.534;-122.308;2022-10-31T07:40:41;101569.13;;;8.59;100.00
68986;BME280;56035;37.534;-122.308;2022-10-31T07:43:08;101561.72;;;8.60;100.00
68986;BME280;56035;37.534;-122.308;2022-10-31T07:45:36;101551.19;;;8.57;100.00
68986;BME280;56035;37.534;-122.308;2022-10-31T07:48:02;101553.28;;;8.61;100.00
68986;BME280;56035;37.534;-122.308;2022-10-31T07:50:30;101548.22;;;8.65;100.00
68986;BME280;56035;37.534;-122.308;2022-10-31T07:53:10;101558.78;;;8.61;100.00
68986;BME280;56035;37.534;-122.308;2022-10-31T07:55:37;101550.72;;;8.53;100.00
68986;BME280;56035;37.534;-122.308;2022-10-31T07:58:06;101543.97;;;8.49;100.00
68986;BME280;56035;37.534;-122.308;2022-10-31T08:00:34;101534.47;;;8.45;100.00
68986;BME280;56035;37.534;-122.308;2022-10-31T08:03:05;101522.41;;;8.39;100.00
68986;BME280;56035;37.534;-122.308;2022-10-31T08:05:32;101521.94;;;8.36;100.00
68986;BME280;56035;37.534;-122.308;2022-10-31T08:07:59;101517.72;;;8.33;100.00
68986;BME280;56035;37.534;-122.308;2022-10-31T08:10:27;101523.84;;;8.29;100.00
68986;BME280;56035;37.534;-122.308;2022-10-31T08:13:01;101527.00;;;8.26;100.00
68986;BME280;56035;37.534;-122.308;2022-10-31T08:15:28;101530.16;;;8.23;100.00
68986;BME280;56035;37.534;-122.308;2022-10-31T08:17:55;101518.97;;;8.17;100.00
68986;BME280;56035;37.534;-122.308;2022-10-31T08:20:21;101516.25;;;8.17;100.00
68986;BME280;56035;37.534;-122.308;2022-10-31T08:23:01;101524.47;;;8.17;100.00
68986;BME280;56035;37.534;-122.308;2022-10-31T08:25:29;101524.88;;;8.14;100.00
68986;BME280;56035;37.534;-122.308;2022-10-31T08:27:56;101530.56;;;8.13;100.00
68986;BME280;56035;37.534;-122.308;2022-10-31T08:30:25;101529.09;;;8.17;100.00
68986;BME280;56035;37.534;-122.308;2022-10-31T08:33:03;101524.47;;;8.17;100.00
68986;BME280;56035;37.534;-122.308;2022-10-31T08:35:31;101521.91;;;8.16;100.00
68986;BME280;56035;37.534;-122.308;2022-10-31T08:37:58;101525.91;;;8.13;100.00
68986;BME280;56035;37.534;-122.308;2022-10-31T08:40:25;101533.31;;;8.13;100.00
68986;BME280;56035;37.534;-122.308;2022-10-31T08:43:03;101525.91;;;8.13;100.00
68986;BME280;56035;37.534;-122.308;2022-10-31T08:45:31;101513.03;;;8.14;100.00
68986;BME280;56035;37.534;-122.308;2022-10-31T08:48:17;101511.78;;;8.16;100.00
68986;BME280;56035;37.534;-122.308;2022-10-31T08:50:44;101506.09;;;8.18;100.00
68986;BME280;56035;37.534;-122.308;2022-10-31T08:53:16;101514.34;;;8.18;100.00
68986;BME280;56035;37.534;-122.308;2022-10-31T08:55:44;101517.91;;;8.18;100.00
68986;BME280;56035;37.534;-122.308;2022-10-31T08:58:13;101514.53;;;8.23;100.00
68986;BME280;56035;37.534;-122.308;2022-10-31T09:00:40;101504.41;;;8.24;100.00
68986;BME280;56035;37.534;-122.308;2022-10-31T09:03:14;101503.78;;;8.21;100.00
68986;BME280;56035;37.534;-122.308;2022-10-31T09:05:41;101492.56;;;8.23;100.00
68986;BME280;56035;37.534;-122.308;2022-10-31T09:08:08;101490.47;;;8.25;100.00
68986;BME280;56035;37.534;-122.308;2022-10-31T09:10:36;101486.47;;;8.21;100.00
68986;BME280;56035;37.534;-122.308;2022-10-31T09:13:05;101474.19;;;8.17;100.00
68986;BME280;56035;37.534;-122.308;2022-10-31T09:15:36;101486.03;;;8.17;100.00
68986;BME280;56035;37.534;-122.308;2022-10-31T09:18:04;101496.81;;;8.19;100.00
68986;BME280;56035;37.534;-122.308;2022-10-31T09:20:32;101493.22;;;8.18;100.00
68986;BME280;56035;37.534;-122.308;2022-10-31T09:23:01;101489.81;;;8.16;100.00
68986;BME280;56035;37.534;-122.308;2022-10-31T09:25:29;101497.44;;;8.14;100.00
68986;BME280;56035;37.534;-122.308;2022-10-31T09:27:59;101498.91;;;8.17;100.00
68986;BME280;56035;37.534;-122.308;2022-10-31T09:30:29;101485.59;;;8.14;100.00
68986;BME280;56035;37.534;-122.308;2022-10-31T09:32:57;101487.91;;;8.10;100.00
68986;BME280;56035;37.534;-122.308;2022-10-31T09:35:24;101483.47;;;8.09;100.00
68986;BME280;56035;37.534;-122.308;2022-10-31T09:37:57;101479.25;;;8.07;100.00
68986;BME280;56035;37.534;-122.308;2022-10-31T09:40:31;101483.91;;;8.06;100.00
68986;BME280;56035;37.534;-122.308;2022-10-31T09:43:14;101477.13;;;8.02;100.00
68986;BME280;56035;37.534;-122.308;2022-10-31T09:46:21;101476.72;;;7.98;100.00
68986;BME280;56035;37.534;-122.308;2022-10-31T09:51:53;101466.16;;;7.95;100.00
68986;BME280;56035;37.534;-122.308;2022-10-31T09:54:45;101465.50;;;8.00;100.00
68986;BME280;56035;37.534;-122.308;2022-10-31T09:57:17;101464.91;;;8.05;100.00
68986;BME280;56035;37.534;-122.308;2022-10-31T09:59:47;101467.44;;;8.06;100.00
68986;BME280;56035;37.534;-122.308;2022-10-31T10:02:28;101464.50;;;8.08;100.00
68986;BME280;56035;37.534;-122.308;2022-10-31T10:05:29;101468.69;;;8.10;100.00
68986;BME280;56035;37.534;-122.308;2022-10-31T10:08:08;101461.94;;;8.13;100.00
68986;BME280;56035;37.534;-122.308;2022-10-31T10:22:05;101443.59;;;8.13;100.00
68986;BME280;56035;37.534;-122.308;2022-10-31T10:27:49;101433.84;;;8.11;100.00
68986;BME280;56035;37.534;-122.308;2022-10-31T10:32:53;101434.72;;;8.11;100.00
68986;BME280;56035;37.534;-122.308;2022-10-31T10:35:26;101425.44;;;8.19;100.00
68986;BME280;56035;37.534;-122.308;2022-10-31T10:41:06;101423.75;;;8.25;100.00
68986;BME280;56035;37.534;-122.308;2022-10-31T10:43:37;101411.94;;;8.31;100.00
68986;BME280;56035;37.534;-122.308;2022-10-31T10:46:32;101416.38;;;8.32;100.00
68986;BME280;56035;37.534;-122.308;2022-10-31T10:49:43;101406.88;;;8.34;100.00
68986;BME280;56035;37.534;-122.308;2022-10-31T10:52:33;101408.16;;;8.45;100.00
68986;BME280;56035;37.534;-122.308;2022-10-31T10:57:49;101395.25;;;8.52;100.00
68986;BME280;56035;37.534;-122.308;2022-10-31T11:00:23;101401.16;;;8.49;100.00
68986;BME280;56035;37.534;-122.308;2022-10-31T11:02:50;101402.00;;;8.56;100.00
68986;BME280;56035;37.534;-122.308;2022-10-31T11:06:03;101400.31;;;8.55;100.00
68986;BME280;56035;37.534;-122.308;2022-10-31T11:08:33;101399.06;;;8.51;100.00
68986;BME280;56035;37.534;-122.308;2022-10-31T11:14:02;101400.13;;;8.63;100.00
68986;BME280;56035;37.534;-122.308;2022-10-31T11:16:40;101397.56;;;8.68;100.00
68986;BME280;56035;37.534;-122.308;2022-10-31T11:19:16;101396.06;;;8.73;100.00
68986;BME280;56035;37.534;-122.308;2022-10-31T11:21:43;101398.19;;;8.77;100.00
68986;BME280;56035;37.534;-122.308;2022-10-31T11:26:38;101380.38;;;8.93;100.00
68986;BME280;56035;37.534;-122.308;2022-10-31T11:29:09;101385.25;;;8.91;100.00
68986;BME280;56035;37.534;-122.308;2022-10-31T11:31:38;101378.69;;;8.92;100.00
68986;BME280;56035;37.534;-122.308;2022-10-31T11:34:12;101394.09;;;9.00;100.00
68986;BME280;56035;37.534;-122.308;2022-10-31T11:36:43;101388.38;;;9.01;100.00
68986;BME280;56035;37.534;-122.308;2022-10-31T11:39:21;101374.44;;;9.03;100.00
68986;BME280;56035;37.534;-122.308;2022-10-31T11:41:48;101377.38;;;9.01;100.00
68986;BME280;56035;37.534;-122.308;2022-10-31T11:44:18;101370.81;;;9.02;100.00
68986;BME280;56035;37.534;-122.308;2022-10-31T11:46:51;101372.72;;;9.02;100.00
68986;BME280;56035;37.534;-122.308;2022-10-31T11:49:30;101378.19;;;9.08;100.00
68986;BME280;56035;37.534;-122.308;2022-10-31T11:52:02;101369.53;;;9.11;100.00
68986;BME280;56035;37.534;-122.308;2022-10-31T11:54:34;101369.31;;;9.13;100.00
68986;BME280;56035;37.534;-122.308;2022-10-31T11:57:03;101367.19;;;9.15;100.00
68986;BME280;56035;37.534;-122.308;2022-10-31T11:59:31;101373.53;;;9.16;100.00
68986;BME280;56035;37.534;-122.308;2022-10-31T12:02:01;101369.09;;;9.14;100.00
68986;BME280;56035;37.534;-122.308;2022-10-31T12:04:41;101367.41;;;9.13;100.00
68986;BME280;56035;37.534;-122.308;2022-10-31T12:07:09;101365.72;;;9.12;100.00
68986;BME280;56035;37.534;-122.308;2022-10-31T12:09:36;101358.31;;;9.13;100.00
68986;BME280;56035;37.534;-122.308;2022-10-31T12:15:30;101367.81;;;9.17;100.00
68986;BME280;56035;37.534;-122.308;2022-10-31T12:31:28;101367.19;;;9.15;100.00
68986;BME280;56035;37.534;-122.308;2022-10-31T12:41:48;101362.53;;;9.09;100.00
68986;BME280;56035;37.534;-122.308;2022-10-31T12:47:50;101360.91;;;9.01;100.00
68986;BME280;56035;37.534;-122.308;2022-10-31T12:58:45;101370.66;;;8.90;100.00
68986;BME280;56035;37.534;-122.308;2022-10-31T13:01:32;101366.88;;;8.85;100.00
68986;BME280;56035;37.534;-122.308;2022-10-31T13:04:09;101369.22;;;8.81;100.00
68986;BME280;56035;37.534;-122.308;2022-10-31T13:06:42;101361.41;;;8.78;100.00
68986;BME280;56035;37.534;-122.308;2022-10-31T13:09:17;101353.16;;;8.78;100.00
68986;BME280;56035;37.534;-122.308;2022-10-31T13:11:48;101345.34;;;8.75;100.00
68986;BME280;56035;37.534;-122.308;2022-10-31T13:14:48;101350.22;;;8.73;100.00
68986;BME280;56035;37.534;-122.308;2022-10-31T13:17:20;101345.38;;;8.68;100.00
68986;BME280;56035;37.534;-122.308;2022-10-31T13:19:48;101338.19;;;8.67;100.00
68986;BME280;56035;37.534;-122.308;2022-10-31T13:22:21;101335.63;;;8.66;100.00
68986;BME280;56035;37.534;-122.308;2022-10-31T13:27:26;101340.97;;;8.61;100.00
68986;BME280;56035;37.534;-122.308;2022-10-31T13:30:06;101346.03;;;8.57;100.00
68986;BME280;56035;37.534;-122.308;2022-10-31T13:32:43;101347.06;;;8.56;100.00
68986;BME280;56035;37.534;-122.308;2022-10-31T13:41:01;101347.97;;;8.50;100.00
68986;BME280;56035;37.534;-122.308;2022-10-31T13:48:58;101350.91;;;8.42;100.00
68986;BME280;56035;37.534;-122.308;2022-10-31T13:51:27;101353.03;;;8.40;100.00
68986;BME280;56035;37.534;-122.308;2022-10-31T13:54:00;101346.91;;;8.38;100.00
68986;BME280;56035;37.534;-122.308;2022-10-31T13:56:32;101343.72;;;8.48;100.00
68986;BME280;56035;37.534;-122.308;2022-10-31T13:59:14;101334.63;;;8.54;100.00
68986;BME280;56035;37.534;-122.308;2022-10-31T14:01:59;101332.72;;;8.54;100.00
68986;BME280;56035;37.534;-122.308;2022-10-31T14:04:53;101340.16;;;8.47;100.00
68986;BME280;56035;37.534;-122.308;2022-10-31T14:07:22;101325.13;;;8.43;100.00
68986;BME280;56035;37.534;-122.308;2022-10-31T14:10:30;101326.84;;;8.44;100.00
68986;BME280;56035;37.534;-122.308;2022-10-31T14:16:02;101330.22;;;8.39;100.00
68986;BME280;56035;37.534;-122.308;2022-10-31T14:18:34;101341.19;;;8.39;100.00
68986;BME280;56035;37.534;-122.308;2022-10-31T14:23:50;101331.94;;;8.40;100.00
68986;BME280;56035;37.534;-122.308;2022-10-31T14:28:53;101333.59;;;8.48;100.00
68986;BME280;56035;37.534;-122.308;2022-10-31T14:31:38;101329.34;;;8.52;100.00